Time;durP1;ratioP1;P1;durP2;ratioP2;P2;SDS_P1;SDS_P2;PMS_P1;PMS_P2;Temp;Humidity;BMP_temperature;BMP_pressure;BME280_temperature;BME280_humidity;BME280_pressure;Samples;Min_cycle;Max_cycle;Signal;HPM_P1;HPM_P2
2021/07/08 00:04:44;;;;;;;1.33;0.47;;;21.20;37.80;;;;;;20209073;28;81812;-68
2021/07/08 00:14:47;;;;;;;3.00;0.60;;;21.20;37.60;;;;;;20226044;28;80781;-68
2021/07/08 00:24:48;;;;;;;0.70;0.30;;;21.30;37.30;;;;;;20228015;28;80752;-68
2021/07/08 00:34:50;;;;;;;3.97;0.43;;;21.40;37.30;;;;;;20228695;28;80639;-68
2021/07/08 00:44:52;;;;;;;1.45;0.60;;;21.40;37.10;;;;;;20224239;28;80635;-67
2021/07/08 00:54:54;;;;;;;1.43;0.40;;;21.30;37.50;;;;;;20220659;28;80756;-67
2021/07/08 01:04:56;;;;;;;1.15;0.40;;;21.10;38.50;;;;;;20227308;28;80567;-67
2021/07/08 01:14:58;;;;;;;1.75;0.45;;;20.90;39.30;;;;;;20225263;28;80633;-67
2021/07/08 01:25:02;;;;;;;2.10;0.40;;;20.70;40.40;;;;;;20221951;28;80984;-68
2021/07/08 01:35:06;;;;;;;2.90;0.90;;;20.50;41.70;;;;;;20223774;28;80782;-68
2021/07/08 01:45:13;;;;;;;5.97;0.85;;;20.50;42.50;;;;;;20233710;28;80560;-67
2021/07/08 01:55:15;;;;;;;0.98;0.30;;;20.40;43.60;;;;;;20231894;28;80716;-68
2021/07/08 02:05:18;;;;;;;1.13;0.40;;;20.20;44.00;;;;;;20209040;28;80764;-69
2021/07/08 02:15:24;;;;;;;2.55;0.60;;;20.10;44.50;;;;;;20216664;28;81435;-69
2021/07/08 02:25:28;;;;;;;2.65;0.50;;;19.90;45.20;;;;;;20217929;28;80607;-69
2021/07/08 02:35:31;;;;;;;1.27;0.50;;;19.90;45.50;;;;;;20233589;28;81067;-69
2021/07/08 02:45:38;;;;;;;1.13;0.40;;;19.80;45.80;;;;;;20232855;28;80549;-69
2021/07/08 02:55:44;;;;;;;2.17;0.80;;;19.70;46.10;;;;;;20219467;28;80456;-69
2021/07/08 03:05:47;;;;;;;1.52;0.40;;;19.60;46.50;;;;;;20230867;28;80709;-68
2021/07/08 03:15:50;;;;;;;0.57;0.40;;;19.50;46.80;;;;;;20217314;28;80767;-69
2021/07/08 03:25:54;;;;;;;2.10;0.57;;;19.40;47.00;;;;;;20228954;28;81364;-68
2021/07/08 03:35:58;;;;;;;0.98;0.50;;;19.30;47.30;;;;;;20213574;28;80726;-68
2021/07/08 03:46:12;;;;;;;1.00;0.60;;;19.20;47.50;;;;;;20216886;28;80715;-68
2021/07/08 03:56:16;;;;;;;1.60;0.60;;;19.20;47.80;;;;;;20226591;28;80749;-67
2021/07/08 04:06:22;;;;;;;1.60;0.40;;;19.00;48.00;;;;;;20210779;28;81432;-68
2021/07/08 04:16:35;;;;;;;1.27;0.53;;;18.90;48.40;;;;;;20213818;28;80480;-68
2021/07/08 04:26:49;;;;;;;1.42;0.60;;;18.90;48.70;;;;;;20170416;28;81058;-67
2021/07/08 04:36:56;;;;;;;45.92;29.08;;;18.80;48.70;;;;;;20226583;28;80351;-67
2021/07/08 04:47:02;;;;;;;1.95;1.08;;;18.80;48.80;;;;;;20211022;28;82768;-68
2021/07/08 04:57:09;;;;;;;4.20;1.05;;;18.80;48.80;;;;;;20223836;28;84350;-69
2021/07/08 05:07:13;;;;;;;2.58;0.80;;;18.80;49.00;;;;;;20237476;28;81920;-68
2021/07/08 05:17:18;;;;;;;1.75;0.82;;;18.70;49.20;;;;;;20233374;28;80745;-70
2021/07/08 05:27:20;;;;;;;10.85;1.08;;;18.60;49.30;;;;;;20223310;28;80675;-68
2021/07/08 05:37:24;;;;;;;3.40;0.90;;;18.70;49.30;;;;;;20264573;28;80566;-71
2021/07/08 05:47:26;;;;;;;6.63;1.10;;;18.80;48.90;;;;;;20228753;28;80663;-69
2021/07/08 05:57:28;;;;;;;3.15;1.00;;;18.80;48.80;;;;;;20219968;28;80132;-69
2021/07/08 06:07:30;;;;;;;30.60;17.98;;;18.80;49.10;;;;;;20232165;28;80899;-71
2021/07/08 06:17:33;;;;;;;2.07;1.07;;;18.90;48.60;;;;;;20182453;28;83173;-71
2021/07/08 06:27:35;;;;;;;;;;;18.90;48.70;;;;;;20199526;28;83270;-69
2021/07/08 06:37:37;;;;;;;2.55;0.90;;;18.90;48.70;;;;;;20239415;28;81298;-70
2021/07/08 06:47:47;;;;;;;4.23;1.60;;;19.00;48.50;;;;;;20224473;28;80151;-68
2021/07/08 06:57:51;;;;;;;4.57;1.00;;;19.00;48.40;;;;;;20232594;28;81096;-68
2021/07/08 07:07:56;;;;;;;2.20;1.10;;;19.10;48.10;;;;;;20217001;28;81220;-68
2021/07/08 07:18:01;;;;;;;14.50;10.25;;;19.30;47.70;;;;;;20229195;28;80644;-69
2021/07/08 07:28:03;;;;;;;8.00;2.47;;;19.40;47.50;;;;;;20217064;28;83937;-68
2021/07/08 07:38:11;;;;;;;6.13;1.63;;;19.50;47.30;;;;;;20216708;28;83362;-69
2021/07/08 07:48:13;;;;;;;4.75;1.55;;;19.80;47.10;;;;;;20223050;28;80861;-69
2021/07/08 07:58:17;;;;;;;4.38;1.67;;;19.90;46.40;;;;;;20211062;28;80725;-68
2021/07/08 08:08:34;;;;;;;5.47;1.17;;;20.10;46.10;;;;;;20210577;28;81039;-69
2021/07/08 08:18:37;;;;;;;6.72;1.35;;;20.30;45.70;;;;;;20224846;28;81309;-70
2021/07/08 08:28:40;;;;;;;3.75;1.05;;;20.50;45.10;;;;;;20219058;28;80097;-69
2021/07/08 08:38:43;;;;;;;;;;;20.80;44.70;;;;;;20212500;28;82068;-68
2021/07/08 08:48:44;;;;;;;8.13;1.35;;;21.20;44.20;;;;;;20262619;28;80618;-69
2021/07/08 08:58:47;;;;;;;3.70;1.00;;;21.40;43.90;;;;;;20193696;28;80373;-69
2021/07/08 09:08:50;;;;;;;;;;;21.80;43.20;;;;;;20238542;28;80787;-69
2021/07/08 09:19:19;;;;;;;4.53;0.70;;;22.10;42.60;;;;;;20244827;28;79398;-67
2021/07/08 09:29:44;;;;;;;3.33;1.20;;;22.50;42.00;;;;;;20216889;28;80086;-68
2021/07/08 09:39:55;;;;;;;3.38;0.80;;;23.00;41.20;;;;;;20254297;28;80938;-70
2021/07/08 09:49:58;;;;;;;3.53;1.02;;;23.50;39.80;;;;;;20242269;28;81767;-68
2021/07/08 10:00:01;;;;;;;9.63;0.95;;;24.40;38.00;;;;;;20239062;28;80455;-69
2021/07/08 10:10:05;;;;;;;3.00;0.80;;;25.20;36.80;;;;;;20253307;28;81326;-69
2021/07/08 10:20:13;;;;;;;2.50;1.02;;;25.70;35.70;;;;;;20189594;28;81881;-70
2021/07/08 10:30:22;;;;;;;2.03;0.80;;;26.10;35.10;;;;;;20244680;28;81174;-69
2021/07/08 10:40:30;;;;;;;7.72;4.95;;;26.50;34.20;;;;;;20267878;28;80954;-70
2021/07/08 10:50:42;;;;;;;3.22;1.00;;;27.00;32.60;;;;;;20228758;28;80669;-70
2021/07/08 11:00:49;;;;;;;3.85;0.82;;;28.50;31.00;;;;;;20207216;28;80822;-70
2021/07/08 11:10:51;;;;;;;4.75;1.67;;;32.90;25.70;;;;;;20212118;28;80493;-70
2021/07/08 11:20:53;;;;;;;1.70;0.80;;;34.20;24.20;;;;;;20235018;28;80860;-70
2021/07/08 11:31:06;;;;;;;2.60;0.90;;;32.90;25.60;;;;;;20236405;28;80595;-70
2021/07/08 11:41:09;;;;;;;0.90;0.50;;;33.00;25.10;;;;;;20210713;28;80735;-70
2021/07/08 11:51:20;;;;;;;0.80;0.50;;;34.40;23.00;;;;;;20214536;28;80228;-71
2021/07/08 12:01:22;;;;;;;1.85;1.10;;;37.50;19.50;;;;;;20222489;28;80569;-71
2021/07/08 12:11:38;;;;;;;3.67;1.52;;;39.70;18.60;;;;;;20234324;28;80713;-71
2021/07/08 12:21:42;;;;;;;1.90;1.20;;;41.00;17.40;;;;;;20226736;28;80759;-69
2021/07/08 12:31:52;;;;;;;3.97;2.15;;;42.30;16.10;;;;;;20201785;28;80469;-69
2021/07/08 12:41:54;;;;;;;2.80;2.15;;;43.40;15.50;;;;;;20195197;28;80701;-69
2021/07/08 12:51:56;;;;;;;4.13;1.75;;;44.00;15.40;;;;;;20228082;28;80664;-65
2021/07/08 13:01:59;;;;;;;17.25;3.75;;;44.70;14.80;;;;;;20216957;28;80900;-67
2021/07/08 13:12:19;;;;;;;8.35;3.20;;;45.00;14.70;;;;;;20207199;28;81863;-68
2021/07/08 13:22:22;;;;;;;57.13;41.35;;;44.70;14.60;;;;;;20202252;28;81472;-69
2021/07/08 13:32:24;;;;;;;8.77;5.63;;;44.20;14.40;;;;;;20194975;28;82951;-68
2021/07/08 13:42:28;;;;;;;4.63;3.20;;;43.50;15.00;;;;;;20224195;28;83514;-69
2021/07/08 13:52:31;;;;;;;4.95;2.58;;;39.60;17.30;;;;;;20224722;28;80926;-69
2021/07/08 14:02:34;;;;;;;4.22;2.10;;;36.00;19.70;;;;;;20220658;28;81153;-69
2021/07/08 14:12:37;;;;;;;2.90;1.40;;;34.30;20.70;;;;;;20226457;28;80230;-69
2021/07/08 14:22:39;;;;;;;3.08;1.45;;;33.30;21.60;;;;;;20219797;28;80605;-69
2021/07/08 14:32:41;;;;;;;6.90;2.20;;;32.70;21.90;;;;;;20193331;28;81287;-69
2021/07/08 14:43:08;;;;;;;2.63;0.93;;;32.50;22.10;;;;;;20228879;28;80477;-70
2021/07/08 14:53:11;;;;;;;2.17;0.80;;;32.10;22.30;;;;;;20235601;28;80674;-72
2021/07/08 15:03:13;;;;;;;3.63;1.40;;;31.90;22.00;;;;;;20216844;28;81272;-69
2021/07/08 15:13:16;;;;;;;4.20;1.30;;;31.70;22.90;;;;;;20224845;28;80959;-67
2021/07/08 15:23:19;;;;;;;10.57;3.58;;;31.40;23.30;;;;;;20223158;28;79929;-69
2021/07/08 15:33:22;;;;;;;2.67;1.00;;;31.30;23.60;;;;;;20214243;28;81197;-69
2021/07/08 15:43:24;;;;;;;5.10;1.67;;;31.00;23.20;;;;;;20228687;28;80185;-69
2021/07/08 15:53:26;;;;;;;2.92;0.90;;;30.90;23.50;;;;;;20226237;28;81361;-68
2021/07/08 16:03:29;;;;;;;2.15;1.20;;;30.60;23.80;;;;;;20243650;28;80737;-69
2021/07/08 16:13:32;;;;;;;2.65;1.63;;;30.50;23.90;;;;;;20199344;28;81011;-69
2021/07/08 16:23:34;;;;;;;9.55;1.40;;;30.40;23.60;;;;;;20207861;28;81491;-70
2021/07/08 16:33:36;;;;;;;3.92;1.23;;;30.20;23.70;;;;;;20204247;28;80738;-68
2021/07/08 16:43:39;;;;;;;2.42;0.90;;;30.00;24.10;;;;;;20237536;28;80178;-69
2021/07/08 16:53:45;;;;;;;7.43;1.10;;;30.00;24.70;;;;;;20217616;28;80592;-68
2021/07/08 17:03:52;;;;;;;4.65;1.15;;;29.70;25.10;;;;;;20228279;28;80247;-67
2021/07/08 17:13:54;;;;;;;3.45;1.98;;;29.60;25.20;;;;;;20239893;28;80590;-66
2021/07/08 17:23:56;;;;;;;5.82;2.03;;;29.40;24.10;;;;;;20202520;28;81281;-66
2021/07/08 17:33:58;;;;;;;7.35;2.00;;;29.30;25.20;;;;;;20220372;28;81186;-67
2021/07/08 17:44:00;;;;;;;5.32;1.13;;;29.20;25.70;;;;;;20166904;28;81140;-67
2021/07/08 17:54:03;;;;;;;3.28;0.90;;;29.00;25.30;;;;;;20220324;28;80882;-66
2021/07/08 18:04:04;;;;;;;15.23;9.38;;;28.80;26.30;;;;;;20211920;28;80181;-66
2021/07/08 18:14:07;;;;;;;7.03;4.20;;;28.50;26.30;;;;;;20203703;28;81068;-64
2021/07/08 18:24:09;;;;;;;6.85;3.35;;;28.50;27.10;;;;;;20213944;28;80629;-67
2021/07/08 18:34:10;;;;;;;5.95;3.20;;;28.30;27.40;;;;;;20208997;28;81209;-66
2021/07/08 18:44:12;;;;;;;9.32;7.00;;;28.10;28.00;;;;;;20171036;28;81573;-67
2021/07/08 18:54:14;;;;;;;19.67;14.63;;;27.90;28.50;;;;;;20196288;28;80730;-67
2021/07/08 19:04:16;;;;;;;11.82;9.05;;;27.70;29.40;;;;;;20187814;28;84515;-67
2021/07/08 19:14:17;;;;;;;7.72;4.60;;;27.50;29.90;;;;;;20234256;28;82282;-67
2021/07/08 19:24:19;;;;;;;9.98;7.15;;;27.30;31.30;;;;;;20230250;28;80679;-67
2021/07/08 19:34:21;;;;;;;6.05;3.50;;;27.00;31.80;;;;;;20225276;28;80639;-67
2021/07/08 19:44:23;;;;;;;8.30;2.80;;;26.70;32.80;;;;;;20225422;28;80957;-67
2021/07/08 19:54:27;;;;;;;6.93;2.15;;;26.40;33.40;;;;;;20230155;28;80696;-66
2021/07/08 20:04:29;;;;;;;8.10;2.60;;;26.00;34.40;;;;;;20235719;28;81110;-68
2021/07/08 20:14:32;;;;;;;11.93;4.25;;;25.80;34.40;;;;;;20246526;28;80140;-66
2021/07/08 20:24:33;;;;;;;13.80;5.63;;;25.70;33.80;;;;;;20211385;28;80634;-68
2021/07/08 20:34:35;;;;;;;35.58;24.83;;;25.20;35.30;;;;;;20224182;28;80770;-67
2021/07/08 20:44:37;;;;;;;11.05;7.88;;;25.00;35.40;;;;;;20207501;28;83359;-68
2021/07/08 20:54:40;;;;;;;9.55;4.65;;;24.80;36.40;;;;;;20226651;28;83366;-68
2021/07/08 21:04:42;;;;;;;30.48;20.30;;;24.70;37.30;;;;;;20212228;28;80702;-68
2021/07/08 21:14:44;;;;;;;15.27;7.38;;;24.50;37.50;;;;;;20213216;28;83490;-68
2021/07/08 21:24:47;;;;;;;60.42;38.35;;;24.30;38.10;;;;;;20225793;28;83401;-68
2021/07/08 21:34:49;;;;;;;32.35;18.63;;;24.10;39.10;;;;;;20210839;28;83361;-68
2021/07/08 21:44:52;;;;;;;16.27;9.52;;;23.90;39.80;;;;;;20189990;28;84169;-68
2021/07/08 21:54:55;;;;;;;48.38;27.38;;;23.80;40.40;;;;;;20210982;28;83751;-68
2021/07/08 22:04:57;;;;;;;16.67;4.75;;;23.50;40.50;;;;;;20206995;28;83543;-68
2021/07/08 22:15:00;;;;;;;8.85;2.47;;;23.50;39.00;;;;;;20205411;28;83100;-68
2021/07/08 22:25:04;;;;;;;23.05;16.50;;;23.70;37.90;;;;;;20211476;28;80511;-70
2021/07/08 22:35:06;;;;;;;14.18;10.07;;;23.60;37.90;;;;;;20223839;28;83944;-70
2021/07/08 22:45:09;;;;;;;5.57;2.10;;;23.40;38.00;;;;;;20202078;28;84507;-70
2021/07/08 22:55:12;;;;;;;3.80;1.30;;;23.30;37.80;;;;;;20228007;28;83307;-71
2021/07/08 23:05:14;;;;;;;5.45;1.15;;;23.30;37.60;;;;;;20218436;28;80758;-70
2021/07/08 23:15:17;;;;;;;2.67;1.13;;;23.20;37.90;;;;;;20230426;28;81448;-70
2021/07/08 23:25:19;;;;;;;5.45;1.50;;;22.90;38.80;;;;;;20234265;28;82316;-69
2021/07/08 23:35:21;;;;;;;7.60;1.50;;;22.60;40.20;;;;;;20216080;28;80747;-68
